Time;durP1;ratioP1;P1;durP2;ratioP2;P2;SDS_P1;SDS_P2;PMS_P1;PMS_P2;Temp;Humidity;BMP_temperature;BMP_pressure;BME280_temperature;BME280_humidity;BME280_pressure;Samples;Min_cycle;Max_cycle;Signal;HPM_P1;HPM_P2
2021/10/23 00:01:48;;;;;;;10.23;4.97;;;;;;;;;;5028189;28;20182;-75
2021/10/23 00:04:13;;;;;;;16.47;5.53;;;;;;;;;;5032297;28;20428;-74
2021/10/23 00:06:38;;;;;;;13.03;4.63;;;;;;;;;;5033880;28;20185;-74
2021/10/23 00:09:03;;;;;;;19.10;4.37;;;;;;;;;;5026899;28;20296;-74
2021/10/23 00:11:29;;;;;;;13.83;4.30;;;;;;;;;;5031802;28;20666;-74
2021/10/23 00:13:54;;;;;;;19.70;7.13;;;;;;;;;;5036372;28;20278;-74
2021/10/23 00:16:19;;;;;;;11.27;5.13;;;;;;;;;;5035397;28;20261;-74
2021/10/23 00:18:44;;;;;;;12.47;4.77;;;;;;;;;;5031700;28;20573;-74
2021/10/23 00:21:09;;;;;;;11.87;4.30;;;;;;;;;;5031523;28;20186;-75
2021/10/23 00:23:34;;;;;;;9.40;4.80;;;;;;;;;;5027847;28;20560;-75
2021/10/23 00:26:00;;;;;;;5.23;3.90;;;;;;;;;;5030294;28;20705;-74
2021/10/23 00:28:25;;;;;;;8.63;3.57;;;;;;;;;;5028710;28;20276;-75
2021/10/23 00:30:50;;;;;;;8.90;3.40;;;;;;;;;;5035256;28;20273;-74
2021/10/23 00:33:15;;;;;;;12.47;3.97;;;;;;;;;;5034850;28;20174;-74
2021/10/23 00:35:40;;;;;;;7.57;3.50;;;;;;;;;;5035248;28;20224;-74
2021/10/23 00:38:06;;;;;;;8.80;3.60;;;;;;;;;;5033504;28;20194;-75
2021/10/23 00:40:31;;;;;;;8.57;4.43;;;;;;;;;;5037564;28;20672;-74
2021/10/23 00:42:58;;;;;;;9.67;3.93;;;;;;;;;;5033559;28;20188;-74
2021/10/23 00:45:24;;;;;;;8.03;3.57;;;;;;;;;;5038985;28;20177;-73
2021/10/23 00:47:49;;;;;;;8.13;3.63;;;;;;;;;;5041670;28;20229;-73
2021/10/23 00:50:14;;;;;;;10.70;4.23;;;;;;;;;;5041652;28;20198;-73
2021/10/23 00:52:41;;;;;;;13.53;4.17;;;;;;;;;;5022167;28;20201;-73
2021/10/23 00:55:07;;;;;;;7.50;3.87;;;;;;;;;;5038012;28;20237;-73
2021/10/23 00:57:32;;;;;;;8.70;3.67;;;;;;;;;;5035103;28;20881;-73
2021/10/23 00:59:58;;;;;;;8.07;3.80;;;;;;;;;;5036830;28;20174;-73
2021/10/23 01:02:23;;;;;;;10.03;3.90;;;;;;;;;;5021359;28;20178;-73
2021/10/23 01:04:48;;;;;;;5.83;3.00;;;;;;;;;;5027377;28;20178;-73
2021/10/23 01:07:13;;;;;;;5.97;3.37;;;;;;;;;;5026332;28;20214;-73
2021/10/23 01:09:39;;;;;;;13.13;4.30;;;;;;;;;;5028394;28;20189;-73
2021/10/23 01:12:06;;;;;;;7.93;3.23;;;;;;;;;;5032194;28;20189;-73
2021/10/23 01:14:31;;;;;;;7.60;2.77;;;;;;;;;;5042181;28;20250;-73
2021/10/23 01:16:56;;;;;;;7.53;3.60;;;;;;;;;;5024982;28;20187;-73
2021/10/23 01:19:22;;;;;;;10.87;3.33;;;;;;;;;;5022558;28;20174;-73
2021/10/23 01:21:48;;;;;;;8.77;3.13;;;;;;;;;;5026517;28;20172;-73
2021/10/23 01:24:14;;;;;;;13.00;3.77;;;;;;;;;;5028103;28;20186;-73
2021/10/23 01:26:40;;;;;;;8.73;3.37;;;;;;;;;;5029094;28;20193;-73
2021/10/23 01:29:07;;;;;;;7.10;3.20;;;;;;;;;;5023205;28;20295;-73
2021/10/23 01:31:32;;;;;;;7.23;3.23;;;;;;;;;;5007532;28;20185;-73
2021/10/23 01:33:58;;;;;;;10.27;4.23;;;;;;;;;;5024340;28;20206;-74
2021/10/23 01:36:23;;;;;;;11.60;3.53;;;;;;;;;;5024428;28;21681;-73
2021/10/23 01:38:49;;;;;;;5.90;2.80;;;;;;;;;;5023010;28;20701;-75
2021/10/23 01:41:14;;;;;;;9.77;3.10;;;;;;;;;;5023807;28;20194;-74
2021/10/23 01:43:40;;;;;;;6.50;3.33;;;;;;;;;;5005804;28;20190;-73
2021/10/23 01:46:05;;;;;;;8.63;3.03;;;;;;;;;;5027153;28;20232;-73
2021/10/23 01:48:33;;;;;;;5.90;3.10;;;;;;;;;;5013806;28;20194;-73
2021/10/23 01:50:58;;;;;;;11.53;3.13;;;;;;;;;;5031679;28;20642;-74
2021/10/23 01:53:23;;;;;;;7.07;3.20;;;;;;;;;;5028920;28;20267;-73
2021/10/23 01:55:48;;;;;;;8.97;3.17;;;;;;;;;;5028847;28;20175;-74
2021/10/23 01:58:13;;;;;;;13.97;3.33;;;;;;;;;;5030221;28;20673;-74
2021/10/23 02:00:39;;;;;;;6.73;3.90;;;;;;;;;;5008030;28;20178;-74
2021/10/23 02:03:04;;;;;;;5.07;3.03;;;;;;;;;;5020048;28;20182;-74
2021/10/23 02:05:29;;;;;;;8.37;3.53;;;;;;;;;;5029302;28;20228;-74
2021/10/23 02:07:54;;;;;;;5.87;3.30;;;;;;;;;;5051783;22;20228;-73
2021/10/23 02:10:20;;;;;;;10.57;3.13;;;;;;;;;;5043729;28;20211;-75
2021/10/23 02:12:45;;;;;;;9.17;3.20;;;;;;;;;;5039968;28;20564;-74
2021/10/23 02:15:10;;;;;;;5.83;3.10;;;;;;;;;;5042574;28;20223;-75
2021/10/23 02:17:36;;;;;;;9.63;3.13;;;;;;;;;;5042217;28;20189;-75
2021/10/23 02:20:05;;;;;;;10.43;3.80;;;;;;;;;;5045746;28;20185;-74
2021/10/23 02:22:30;;;;;;;6.13;3.10;;;;;;;;;;5040418;28;20200;-73
2021/10/23 02:24:55;;;;;;;7.23;3.07;;;;;;;;;;5022902;28;20181;-74
2021/10/23 02:27:20;;;;;;;7.17;3.10;;;;;;;;;;5041081;28;20259;-74
2021/10/23 02:29:46;;;;;;;7.17;2.93;;;;;;;;;;5040721;28;20263;-74
2021/10/23 02:32:11;;;;;;;9.13;3.10;;;;;;;;;;5039548;28;20170;-74
2021/10/23 02:34:36;;;;;;;6.40;3.00;;;;;;;;;;5039562;28;20632;-74
2021/10/23 02:37:02;;;;;;;10.60;3.30;;;;;;;;;;5022718;28;20643;-74
2021/10/23 02:39:27;;;;;;;7.47;3.27;;;;;;;;;;5022292;28;20699;-74
2021/10/23 02:41:52;;;;;;;13.10;3.47;;;;;;;;;;5038936;28;20182;-74
2021/10/23 02:44:17;;;;;;;5.20;3.07;;;;;;;;;;5039773;28;20192;-74
2021/10/23 02:46:43;;;;;;;8.60;3.17;;;;;;;;;;5039786;28;20189;-74
2021/10/23 02:49:09;;;;;;;8.80;3.20;;;;;;;;;;5022621;28;20208;-74
2021/10/23 02:51:34;;;;;;;8.20;3.40;;;;;;;;;;5027578;28;20544;-74
2021/10/23 02:54:00;;;;;;;7.33;2.80;;;;;;;;;;5045446;28;20216;-74
2021/10/23 02:56:26;;;;;;;8.00;3.60;;;;;;;;;;5045514;28;20562;-74
2021/10/23 02:58:51;;;;;;;10.43;3.73;;;;;;;;;;5025257;28;20403;-74
2021/10/23 03:01:16;;;;;;;10.30;4.47;;;;;;;;;;5048534;28;20173;-74
2021/10/23 03:03:41;;;;;;;14.53;3.40;;;;;;;;;;5037191;28;20197;-74
2021/10/23 03:06:07;;;;;;;10.83;3.73;;;;;;;;;;5045016;28;20685;-74
2021/10/23 03:08:32;;;;;;;9.33;3.43;;;;;;;;;;5032416;28;20220;-75
2021/10/23 03:10:57;;;;;;;17.17;3.83;;;;;;;;;;5046650;28;20248;-74
2021/10/23 03:13:22;;;;;;;10.13;3.67;;;;;;;;;;5045536;28;20205;-75
2021/10/23 03:15:47;;;;;;;9.93;3.83;;;;;;;;;;5047566;28;20182;-74
2021/10/23 03:18:13;;;;;;;4.27;3.10;;;;;;;;;;5046728;28;20190;-74
2021/10/23 03:20:38;;;;;;;5.27;3.13;;;;;;;;;;5049218;28;20177;-74
2021/10/23 03:23:03;;;;;;;13.47;3.90;;;;;;;;;;5047327;28;20590;-75
2021/10/23 03:25:28;;;;;;;9.40;4.03;;;;;;;;;;5043246;28;20189;-74
2021/10/23 03:27:53;;;;;;;10.47;4.23;;;;;;;;;;5043615;28;20206;-74
2021/10/23 03:30:18;;;;;;;5.90;3.27;;;;;;;;;;5026059;28;20641;-74
2021/10/23 03:32:43;;;;;;;6.47;3.83;;;;;;;;;;5043236;28;20186;-74
2021/10/23 03:35:09;;;;;;;11.97;4.47;;;;;;;;;;5042186;28;20290;-74
2021/10/23 03:37:34;;;;;;;6.97;3.23;;;;;;;;;;5043559;28;20194;-74
2021/10/23 03:40:02;;;;;;;6.93;3.17;;;;;;;;;;5042829;28;20368;-74
2021/10/23 03:42:27;;;;;;;8.77;3.27;;;;;;;;;;5042202;28;20639;-74
2021/10/23 03:44:52;;;;;;;9.60;3.20;;;;;;;;;;5042067;28;20633;-74
2021/10/23 03:47:18;;;;;;;6.93;3.37;;;;;;;;;;5041447;28;20188;-74
2021/10/23 03:49:43;;;;;;;8.63;3.27;;;;;;;;;;5041134;28;20283;-74
2021/10/23 03:52:09;;;;;;;11.87;3.33;;;;;;;;;;5024591;28;20279;-74
2021/10/23 03:54:34;;;;;;;9.47;3.77;;;;;;;;;;5046735;28;20201;-74
2021/10/23 03:57:02;;;;;;;9.27;4.10;;;;;;;;;;5048443;28;20275;-74
2021/10/23 03:59:28;;;;;;;13.23;4.13;;;;;;;;;;5030569;28;20189;-75
2021/10/23 04:01:53;;;;;;;10.67;3.87;;;;;;;;;;5048749;28;20177;-75
2021/10/23 04:04:18;;;;;;;6.30;3.50;;;;;;;;;;5026344;28;20597;-74
2021/10/23 04:06:43;;;;;;;7.07;3.63;;;;;;;;;;5047266;28;20189;-75
2021/10/23 04:09:09;;;;;;;9.27;3.57;;;;;;;;;;5046458;28;20267;-73
2021/10/23 04:11:34;;;;;;;8.17;3.53;;;;;;;;;;5047520;28;20181;-74
2021/10/23 04:14:00;;;;;;;10.47;5.40;;;;;;;;;;5042774;28;20678;-74
2021/10/23 04:16:25;;;;;;;6.80;3.73;;;;;;;;;;5049426;28;20177;-73
2021/10/23 04:18:50;;;;;;;10.37;3.87;;;;;;;;;;5043576;28;20252;-74
2021/10/23 04:21:15;;;;;;;6.47;3.80;;;;;;;;;;5046434;28;20236;-73
2021/10/23 04:23:41;;;;;;;10.87;4.30;;;;;;;;;;5045809;28;20184;-74
2021/10/23 04:26:06;;;;;;;5.90;3.77;;;;;;;;;;5046356;28;20204;-74
2021/10/23 04:28:31;;;;;;;8.93;3.73;;;;;;;;;;5050337;28;20201;-74
2021/10/23 04:30:56;;;;;;;9.40;3.90;;;;;;;;;;5049289;28;20220;-73
2021/10/23 04:33:22;;;;;;;6.73;4.20;;;;;;;;;;5042285;28;20401;-74
2021/10/23 04:35:47;;;;;;;10.30;4.43;;;;;;;;;;5047233;28;20185;-74
2021/10/23 04:38:12;;;;;;;10.63;4.30;;;;;;;;;;5047702;28;20236;-74
2021/10/23 04:40:38;;;;;;;10.03;3.87;;;;;;;;;;5030507;28;20185;-73
2021/10/23 04:43:04;;;;;;;7.57;3.60;;;;;;;;;;5049287;28;20220;-74
2021/10/23 04:45:29;;;;;;;6.67;3.83;;;;;;;;;;5029806;28;20205;-74
2021/10/23 04:47:54;;;;;;;10.33;4.43;;;;;;;;;;5047444;28;20204;-74
2021/10/23 04:50:19;;;;;;;9.47;4.83;;;;;;;;;;5048765;28;20618;-74
2021/10/23 04:52:44;;;;;;;9.53;4.37;;;;;;;;;;5045069;28;20178;-74
2021/10/23 04:55:09;;;;;;;12.23;4.37;;;;;;;;;;5048775;28;20197;-74
2021/10/23 04:57:35;;;;;;;12.47;4.33;;;;;;;;;;5046796;28;20197;-73
2021/10/23 05:00:00;;;;;;;12.40;4.80;;;;;;;;;;5049356;28;20651;-75
2021/10/23 05:02:25;;;;;;;11.37;4.93;;;;;;;;;;5046137;28;20180;-74
2021/10/23 05:04:50;;;;;;;12.37;4.47;;;;;;;;;;5042874;28;20216;-75
2021/10/23 05:07:15;;;;;;;10.63;4.60;;;;;;;;;;5043163;28;20192;-75
2021/10/23 05:09:41;;;;;;;15.57;7.00;;;;;;;;;;5047129;28;20180;-74
2021/10/23 05:12:06;;;;;;;11.37;6.33;;;;;;;;;;5028441;28;20190;-74
2021/10/23 05:14:31;;;;;;;14.03;7.00;;;;;;;;;;5051097;28;20208;-75
2021/10/23 05:16:56;;;;;;;19.70;8.13;;;;;;;;;;5044010;28;20174;-75
2021/10/23 05:19:21;;;;;;;16.20;7.27;;;;;;;;;;5042911;28;20246;-74
2021/10/23 05:21:46;;;;;;;20.03;8.37;;;;;;;;;;5046472;28;20178;-74
2021/10/23 05:24:12;;;;;;;16.43;7.53;;;;;;;;;;5043486;28;20170;-74
2021/10/23 05:26:37;;;;;;;21.03;7.87;;;;;;;;;;5043687;28;20563;-75
2021/10/23 05:29:02;;;;;;;14.03;7.03;;;;;;;;;;5046188;28;20202;-74
2021/10/23 05:31:27;;;;;;;16.17;8.53;;;;;;;;;;5050965;28;20200;-74
2021/10/23 05:33:52;;;;;;;12.77;7.90;;;;;;;;;;5051281;28;20216;-74
2021/10/23 05:36:17;;;;;;;16.47;7.93;;;;;;;;;;5031950;28;20197;-74
2021/10/23 05:38:43;;;;;;;11.67;7.20;;;;;;;;;;5054701;28;20346;-74
2021/10/23 05:41:08;;;;;;;17.10;8.83;;;;;;;;;;5054381;28;20193;-75
2021/10/23 05:43:33;;;;;;;19.50;8.80;;;;;;;;;;5035281;28;20216;-75
2021/10/23 05:45:58;;;;;;;16.33;7.53;;;;;;;;;;5031161;28;20300;-75
2021/10/23 05:48:23;;;;;;;18.60;8.37;;;;;;;;;;5048177;28;20206;-74
2021/10/23 05:50:49;;;;;;;15.70;7.57;;;;;;;;;;5046995;28;20250;-75
2021/10/23 05:53:14;;;;;;;16.80;7.77;;;;;;;;;;5028913;28;20200;-74
2021/10/23 05:55:39;;;;;;;14.67;8.10;;;;;;;;;;5047269;28;20674;-75
2021/10/23 05:58:05;;;;;;;12.27;7.90;;;;;;;;;;5051841;28;20197;-74
2021/10/23 06:00:30;;;;;;;12.57;7.83;;;;;;;;;;5028796;28;21874;-75
2021/10/23 06:02:57;;;;;;;13.67;7.97;;;;;;;;;;5052808;28;20235;-74
2021/10/23 06:05:22;;;;;;;12.30;7.93;;;;;;;;;;5033110;28;20211;-75
2021/10/23 06:07:49;;;;;;;14.73;8.33;;;;;;;;;;5041723;28;20217;-74
2021/10/23 06:10:14;;;;;;;14.73;8.40;;;;;;;;;;5041805;28;20261;-75
2021/10/23 06:12:39;;;;;;;15.07;7.90;;;;;;;;;;5028304;28;20646;-74
2021/10/23 06:15:05;;;;;;;15.33;7.63;;;;;;;;;;5028697;28;20213;-74
2021/10/23 06:17:31;;;;;;;14.80;8.03;;;;;;;;;;5045971;28;20205;-74
2021/10/23 06:19:57;;;;;;;14.80;7.97;;;;;;;;;;5031714;28;20174;-75
2021/10/23 06:22:22;;;;;;;13.33;7.33;;;;;;;;;;5044366;28;20176;-75
2021/10/23 06:24:47;;;;;;;16.13;8.83;;;;;;;;;;5045794;28;20185;-75
2021/10/23 06:27:12;;;;;;;16.70;9.13;;;;;;;;;;5046688;28;20268;-75
2021/10/23 06:29:38;;;;;;;15.10;9.70;;;;;;;;;;5044718;28;21771;-75
2021/10/23 06:32:03;;;;;;;13.77;9.13;;;;;;;;;;5045317;28;20181;-75
2021/10/23 06:34:28;;;;;;;17.87;9.73;;;;;;;;;;5025519;28;20583;-74
2021/10/23 06:36:54;;;;;;;17.30;9.43;;;;;;;;;;5025622;28;20255;-75
2021/10/23 06:39:19;;;;;;;17.90;10.03;;;;;;;;;;5044713;28;20631;-75
2021/10/23 06:41:44;;;;;;;18.20;9.90;;;;;;;;;;5043919;28;20639;-75
2021/10/23 06:44:10;;;;;;;17.87;9.87;;;;;;;;;;5042574;28;20185;-74
2021/10/23 06:46:36;;;;;;;21.43;11.20;;;;;;;;;;5044092;28;20596;-74
2021/10/23 06:49:01;;;;;;;22.33;11.87;;;;;;;;;;5047013;28;20252;-74
2021/10/23 06:51:27;;;;;;;16.47;11.10;;;;;;;;;;5050627;28;20746;-74
2021/10/23 06:53:55;;;;;;;22.47;10.60;;;;;;;;;;5031643;28;20205;-74
2021/10/23 06:56:20;;;;;;;18.10;10.27;;;;;;;;;;5051747;28;20173;-75
2021/10/23 06:58:45;;;;;;;20.73;10.70;;;;;;;;;;5032307;28;20748;-75
2021/10/23 07:01:10;;;;;;;21.43;12.33;;;;;;;;;;5050090;28;20193;-75
2021/10/23 07:03:35;;;;;;;15.47;10.63;;;;;;;;;;5049346;28;20177;-75
2021/10/23 07:06:01;;;;;;;15.67;10.47;;;;;;;;;;5039669;28;20282;-75
2021/10/23 07:08:26;;;;;;;16.90;11.03;;;;;;;;;;5030927;28;20214;-75
2021/10/23 07:10:51;;;;;;;18.10;11.87;;;;;;;;;;5017896;28;20212;-75
2021/10/23 07:13:16;;;;;;;17.30;10.50;;;;;;;;;;5027920;28;20197;-75
2021/10/23 07:15:43;;;;;;;16.17;10.13;;;;;;;;;;5029150;28;20205;-75
2021/10/23 07:18:08;;;;;;;15.93;10.43;;;;;;;;;;5019342;28;20189;-75
2021/10/23 07:20:33;;;;;;;18.87;12.07;;;;;;;;;;5040069;28;20193;-75
2021/10/23 07:22:59;;;;;;;20.07;12.33;;;;;;;;;;5033191;28;20217;-74
2021/10/23 07:25:24;;;;;;;16.33;11.27;;;;;;;;;;5027714;28;20658;-74
2021/10/23 07:27:49;;;;;;;16.83;10.53;;;;;;;;;;5035098;28;20202;-74
2021/10/23 07:30:14;;;;;;;17.30;10.60;;;;;;;;;;5032295;28;20194;-74
2021/10/23 07:32:40;;;;;;;18.33;12.57;;;;;;;;;;5030186;28;20556;-74
2021/10/23 07:35:06;;;;;;;19.50;11.93;;;;;;;;;;5030103;28;20209;-74
2021/10/23 07:37:32;;;;;;;21.77;12.57;;;;;;;;;;5029673;28;20731;-74
2021/10/23 07:39:57;;;;;;;26.97;14.90;;;;;;;;;;5030823;28;20190;-74
2021/10/23 07:42:23;;;;;;;19.93;12.40;;;;;;;;;;5012234;28;20176;-75
2021/10/23 07:44:48;;;;;;;23.30;14.17;;;;;;;;;;5028781;28;20178;-74
2021/10/23 07:47:13;;;;;;;19.67;14.40;;;;;;;;;;5029701;28;20193;-74
2021/10/23 07:49:39;;;;;;;19.67;13.53;;;;;;;;;;5029120;28;20268;-74
2021/10/23 07:52:04;;;;;;;19.77;12.60;;;;;;;;;;5029120;28;20263;-74
2021/10/23 07:54:30;;;;;;;21.83;13.17;;;;;;;;;;5027537;28;20197;-74
2021/10/23 07:56:57;;;;;;;21.47;14.13;;;;;;;;;;5039397;28;20246;-74
2021/10/23 07:59:26;;;;;;;24.20;12.97;;;;;;;;;;5027468;28;20210;-74
2021/10/23 08:01:51;;;;;;;19.77;12.53;;;;;;;;;;5026695;28;20190;-74
2021/10/23 08:04:16;;;;;;;23.03;13.63;;;;;;;;;;5010452;28;20189;-74
2021/10/23 08:06:41;;;;;;;25.10;13.20;;;;;;;;;;5027060;28;20182;-75
2021/10/23 08:09:11;;;;;;;25.87;14.43;;;;;;;;;;5046942;23;20230;-75
2021/10/23 08:11:37;;;;;;;30.10;15.97;;;;;;;;;;5050583;28;20169;-74
2021/10/23 08:14:02;;;;;;;26.17;16.27;;;;;;;;;;5042160;28;20198;-75
2021/10/23 08:16:27;;;;;;;30.80;17.63;;;;;;;;;;5044759;28;20265;-72
2021/10/23 08:18:52;;;;;;;30.73;17.57;;;;;;;;;;5038487;28;20269;-75
2021/10/23 08:21:18;;;;;;;29.43;17.33;;;;;;;;;;5029114;28;20183;-74
2021/10/23 08:23:44;;;;;;;31.17;17.37;;;;;;;;;;5032504;28;20231;-74
2021/10/23 08:26:09;;;;;;;29.97;19.50;;;;;;;;;;5044593;28;20728;-73
2021/10/23 08:28:34;;;;;;;30.73;18.37;;;;;;;;;;5032111;28;20201;-74
2021/10/23 08:30:59;;;;;;;28.40;17.50;;;;;;;;;;5019647;28;20194;-73
2021/10/23 08:33:24;;;;;;;23.80;15.57;;;;;;;;;;5018617;28;20190;-74
2021/10/23 08:35:50;;;;;;;27.47;17.33;;;;;;;;;;5018252;28;20212;-73
2021/10/23 08:38:15;;;;;;;28.47;17.47;;;;;;;;;;5017368;28;20197;-75
2021/10/23 08:40:40;;;;;;;29.17;18.07;;;;;;;;;;5017854;28;20201;-74
2021/10/23 08:43:08;;;;;;;27.92;17.95;;;;;;;;;;5020613;28;20185;-75
2021/10/23 08:45:34;;;;;;;32.43;18.37;;;;;;;;;;5019116;28;20204;-74
2021/10/23 08:48:01;;;;;;;30.40;17.77;;;;;;;;;;5030897;28;20488;-74
2021/10/23 08:50:26;;;;;;;26.63;17.97;;;;;;;;;;5017140;28;20210;-74
2021/10/23 08:53:00;;;;;;;24.00;16.67;;;;;;;;;;5020672;28;20613;-74
2021/10/23 08:55:25;;;;;;;29.80;18.43;;;;;;;;;;5019259;28;20201;-74
2021/10/23 08:57:51;;;;;;;24.60;16.07;;;;;;;;;;5021328;28;20259;-75
2021/10/23 09:00:16;;;;;;;23.93;16.60;;;;;;;;;;5016684;28;20171;-74
2021/10/23 09:02:42;;;;;;;22.30;15.32;;;;;;;;;;5020340;28;22228;-74
2021/10/23 09:05:07;;;;;;;27.53;16.27;;;;;;;;;;5016736;28;20186;-74
2021/10/23 09:07:33;;;;;;;22.13;16.07;;;;;;;;;;5019396;28;20265;-74
2021/10/23 09:10:03;;;;;;;22.00;14.93;;;;;;;;;;5017137;28;20532;-74
2021/10/23 09:12:29;;;;;;;21.83;15.15;;;;;;;;;;5029258;28;20474;-74
2021/10/23 09:14:58;;;;;;;20.52;15.18;;;;;;;;;;5016857;28;20222;-74
2021/10/23 09:17:23;;;;;;;25.95;14.75;;;;;;;;;;5041449;28;21035;-74
2021/10/23 09:19:49;;;;;;;21.20;14.33;;;;;;;;;;5017077;28;20206;-73
2021/10/23 09:22:21;;;;;;;21.33;16.08;;;;;;;;;;5019896;28;20268;-74
2021/10/23 09:24:46;;;;;;;21.27;15.13;;;;;;;;;;5014596;28;20178;-74
2021/10/23 09:27:16;;;;;;;21.35;13.90;;;;;;;;;;5013969;28;20655;-74
2021/10/23 09:29:41;;;;;;;21.45;14.85;;;;;;;;;;5016557;28;20670;-75
2021/10/23 09:32:10;;;;;;;19.23;13.75;;;;;;;;;;5017788;28;20185;-74
2021/10/23 09:34:36;;;;;;;17.63;12.90;;;;;;;;;;5016979;28;20210;-74
2021/10/23 09:37:03;;;;;;;18.67;12.38;;;;;;;;;;5023909;28;20182;-73
2021/10/23 09:39:29;;;;;;;15.52;11.88;;;;;;;;;;5022995;28;20202;-73
2021/10/23 09:42:03;;;;;;;15.60;11.40;;;;;;;;;;5017261;28;20818;-74
2021/10/23 09:44:29;;;;;;;13.02;10.30;;;;;;;;;;5016337;28;20194;-73
2021/10/23 09:46:54;;;;;;;13.18;10.73;;;;;;;;;;5018416;28;20191;-73
2021/10/23 09:49:23;;;;;;;17.80;11.32;;;;;;;;;;5015884;28;20244;-73
2021/10/23 09:52:01;;;;;;;13.85;10.00;;;;;;;;;;5033044;28;20185;-73
2021/10/23 09:54:27;;;;;;;11.55;9.85;;;;;;;;;;5017084;28;20198;-73
2021/10/23 09:56:52;;;;;;;11.68;9.43;;;;;;;;;;5015941;28;20212;-74
2021/10/23 09:59:27;;;;;;;15.80;10.35;;;;;;;;;;5017175;28;20676;-73
2021/10/23 10:01:55;;;;;;;12.38;9.60;;;;;;;;;;5016713;28;20242;-74
2021/10/23 10:04:21;;;;;;;13.30;9.30;;;;;;;;;;5026071;28;20491;-74
2021/10/23 10:06:47;;;;;;;14.48;9.43;;;;;;;;;;5035356;28;20189;-74
2021/10/23 10:09:12;;;;;;;13.30;8.77;;;;;;;;;;5030528;28;20233;-74
2021/10/23 10:11:38;;;;;;;13.13;9.25;;;;;;;;;;5030837;28;20182;-73
2021/10/23 10:14:07;;;;;;;14.15;8.93;;;;;;;;;;5022784;28;20291;-74
2021/10/23 10:16:32;;;;;;;12.43;9.32;;;;;;;;;;5020263;28;20277;-74
2021/10/23 10:18:57;;;;;;;12.50;9.05;;;;;;;;;;5022296;28;20287;-74
2021/10/23 10:21:23;;;;;;;14.77;9.50;;;;;;;;;;5020865;28;20255;-74
2021/10/23 10:23:51;;;;;;;14.90;9.07;;;;;;;;;;5024082;28;20680;-75
2021/10/23 10:26:25;;;;;;;9.63;8.52;;;;;;;;;;5020422;28;20218;-74
2021/10/23 10:29:10;;;;;;;16.88;9.48;;;;;;;;;;5021751;28;20626;-74
2021/10/23 10:31:59;;;;;;;10.35;9.10;;;;;;;;;;5019388;28;20277;-75
2021/10/23 10:34:37;;;;;;;14.80;9.75;;;;;;;;;;5022569;28;20700;-75
2021/10/23 10:40:12;;;;;;;11.52;9.07;;;;;;;;;;5021834;28;20209;-75
2021/10/23 10:42:51;;;;;;;10.82;9.23;;;;;;;;;;5022159;28;20229;-75
2021/10/23 10:45:27;;;;;;;12.80;9.20;;;;;;;;;;5023894;28;20182;-74
2021/10/23 10:48:09;;;;;;;10.77;9.10;;;;;;;;;;5050405;28;20229;-74
2021/10/23 10:50:34;;;;;;;12.32;9.10;;;;;;;;;;5030752;28;20615;-74
2021/10/23 10:53:11;;;;;;;15.95;9.52;;;;;;;;;;5032367;28;20182;-74
2021/10/23 10:55:37;;;;;;;12.40;9.10;;;;;;;;;;5028066;28;20201;-74
2021/10/23 10:58:06;;;;;;;16.13;9.25;;;;;;;;;;5034556;28;20192;-74
2021/10/23 11:00:52;;;;;;;17.85;9.55;;;;;;;;;;5034013;28;20264;-74
2021/10/23 11:03:37;;;;;;;16.05;9.20;;;;;;;;;;5034769;28;20583;-73
2021/10/23 11:06:21;;;;;;;10.23;8.43;;;;;;;;;;5034960;28;20560;-74
2021/10/23 11:08:46;;;;;;;11.90;8.68;;;;;;;;;;5033319;28;20205;-74
2021/10/23 11:11:11;;;;;;;13.10;9.37;;;;;;;;;;5034740;28;20648;-74
2021/10/23 11:13:44;;;;;;;11.18;8.82;;;;;;;;;;5052246;28;20545;-73
2021/10/23 11:16:38;;;;;;;12.68;8.68;;;;;;;;;;5004169;28;20186;-74
2021/10/23 11:19:04;;;;;;;14.50;8.77;;;;;;;;;;5026053;28;20289;-74
2021/10/23 11:21:31;;;;;;;12.10;8.45;;;;;;;;;;5032378;28;20253;-73
2021/10/23 11:23:56;;;;;;;15.23;8.88;;;;;;;;;;5030959;28;20178;-72
2021/10/23 11:26:21;;;;;;;12.55;8.50;;;;;;;;;;5031228;28;20178;-72
2021/10/23 11:28:47;;;;;;;13.65;9.15;;;;;;;;;;5029557;28;20285;-73
2021/10/23 11:31:21;;;;;;;10.10;7.32;;;;;;;;;;5031860;28;20174;-73
2021/10/23 11:33:46;;;;;;;12.63;8.65;;;;;;;;;;5020803;28;20173;-74
2021/10/23 11:36:19;;;;;;;10.00;8.00;;;;;;;;;;5021247;28;20171;-73
2021/10/23 11:38:48;;;;;;;23.73;9.40;;;;;;;;;;5033671;28;20263;-73
2021/10/23 11:41:13;;;;;;;13.02;7.93;;;;;;;;;;5035893;28;20209;-73
2021/10/23 11:43:39;;;;;;;12.87;8.57;;;;;;;;;;5037990;28;20204;-73
2021/10/23 11:46:06;;;;;;;13.25;7.70;;;;;;;;;;5040530;28;21692;-74
2021/10/23 11:48:31;;;;;;;11.90;7.10;;;;;;;;;;5035900;28;20189;-73
2021/10/23 11:50:56;;;;;;;10.70;7.95;;;;;;;;;;5037010;28;20174;-74
2021/10/23 11:53:22;;;;;;;11.25;8.40;;;;;;;;;;5035179;28;20269;-74
2021/10/23 11:55:55;;;;;;;10.98;7.05;;;;;;;;;;5041336;28;20290;-73
2021/10/23 11:58:25;;;;;;;9.98;7.45;;;;;;;;;;5044214;28;20216;-74
2021/10/23 12:00:57;;;;;;;12.77;7.95;;;;;;;;;;5058893;28;20218;-73
2021/10/23 12:03:38;;;;;;;9.88;7.63;;;;;;;;;;5041742;28;20216;-74
2021/10/23 12:06:12;;;;;;;10.18;7.68;;;;;;;;;;5045021;28;20170;-74
2021/10/23 12:08:38;;;;;;;13.68;8.13;;;;;;;;;;5046822;28;20197;-73
2021/10/23 12:11:03;;;;;;;15.97;8.13;;;;;;;;;;5037796;28;20179;-74
2021/10/23 12:13:29;;;;;;;11.27;8.02;;;;;;;;;;5032575;28;21035;-73
2021/10/23 12:16:02;;;;;;;10.55;7.22;;;;;;;;;;5035806;28;20206;-73
2021/10/23 12:18:28;;;;;;;11.00;7.32;;;;;;;;;;5032469;28;20728;-74
2021/10/23 12:20:54;;;;;;;10.55;7.40;;;;;;;;;;5032416;28;20600;-73
2021/10/23 12:23:38;;;;;;;9.60;7.57;;;;;;;;;;5030470;28;20217;-73
2021/10/23 12:26:04;;;;;;;12.80;7.85;;;;;;;;;;5028020;28;20588;-74
2021/10/23 12:28:29;;;;;;;9.82;7.57;;;;;;;;;;5028566;28;20189;-73
2021/10/23 12:30:55;;;;;;;18.63;9.13;;;;;;;;;;5029893;28;20243;-73
2021/10/23 12:33:20;;;;;;;10.25;7.60;;;;;;;;;;5031895;28;20179;-73
2021/10/23 12:35:45;;;;;;;9.73;7.60;;;;;;;;;;5033888;28;20218;-73
2021/10/23 12:38:13;;;;;;;11.30;8.10;;;;;;;;;;5031168;28;20482;-73
2021/10/23 12:40:42;;;;;;;10.50;8.02;;;;;;;;;;5032390;28;21984;-73
2021/10/23 12:43:09;;;;;;;12.13;7.38;;;;;;;;;;5034996;28;20639;-73
2021/10/23 12:45:35;;;;;;;11.30;7.90;;;;;;;;;;5034121;28;20177;-73
2021/10/23 12:48:02;;;;;;;9.25;7.22;;;;;;;;;;5032342;28;20702;-73
2021/10/23 12:50:27;;;;;;;8.93;7.07;;;;;;;;;;5034226;28;20185;-73
2021/10/23 12:52:53;;;;;;;10.90;8.13;;;;;;;;;;5034991;28;20204;-73
2021/10/23 12:55:19;;;;;;;10.77;7.72;;;;;;;;;;5036462;28;20209;-73
2021/10/23 12:57:44;;;;;;;11.02;8.23;;;;;;;;;;5031625;28;20580;-73
2021/10/23 13:00:10;;;;;;;8.90;7.88;;;;;;;;;;5032208;28;20197;-73
2021/10/23 13:02:35;;;;;;;12.45;8.25;;;;;;;;;;5034990;28;20246;-73
2021/10/23 13:05:00;;;;;;;8.35;7.18;;;;;;;;;;5032100;28;20640;-74
2021/10/23 13:07:26;;;;;;;10.93;8.38;;;;;;;;;;5032227;28;20374;-74
2021/10/23 13:09:51;;;;;;;10.93;7.28;;;;;;;;;;5026797;28;20225;-74
2021/10/23 13:12:16;;;;;;;10.50;8.20;;;;;;;;;;5021368;28;21756;-74
2021/10/23 13:14:41;;;;;;;10.93;7.10;;;;;;;;;;5017664;28;20221;-74
2021/10/23 13:17:06;;;;;;;22.55;8.45;;;;;;;;;;5016707;28;20466;-74
2021/10/23 13:19:32;;;;;;;8.97;7.33;;;;;;;;;;5019468;28;20280;-74
2021/10/23 13:21:57;;;;;;;10.35;8.10;;;;;;;;;;5018773;28;20420;-74
2021/10/23 13:24:22;;;;;;;10.27;7.10;;;;;;;;;;5021295;28;20659;-74
2021/10/23 13:26:48;;;;;;;8.50;6.93;;;;;;;;;;5017435;28;20241;-74
2021/10/23 13:29:15;;;;;;;8.63;6.82;;;;;;;;;;5016299;28;20209;-73
2021/10/23 13:31:40;;;;;;;9.38;6.30;;;;;;;;;;5014704;28;20192;-73
2021/10/23 13:34:05;;;;;;;7.90;5.88;;;;;;;;;;5014693;28;20201;-73
2021/10/23 13:36:30;;;;;;;9.90;6.47;;;;;;;;;;5018339;28;20186;-73
2021/10/23 13:38:56;;;;;;;7.63;6.88;;;;;;;;;;5016929;28;20193;-73
2021/10/23 13:41:21;;;;;;;9.48;6.53;;;;;;;;;;5015410;28;20914;-73
2021/10/23 13:43:47;;;;;;;8.52;6.47;;;;;;;;;;5014755;28;20647;-74
2021/10/23 13:46:12;;;;;;;8.13;6.10;;;;;;;;;;5014661;28;20185;-73
2021/10/23 13:48:37;;;;;;;7.45;6.25;;;;;;;;;;5016352;28;20202;-73
2021/10/23 13:51:02;;;;;;;8.60;6.10;;;;;;;;;;5016859;28;20861;-74
2021/10/23 13:53:28;;;;;;;9.10;5.75;;;;;;;;;;5025056;28;20257;-74
2021/10/23 13:55:54;;;;;;;8.07;5.68;;;;;;;;;;5015916;28;20229;-73
2021/10/23 13:58:19;;;;;;;8.10;6.05;;;;;;;;;;5017793;28;20237;-73
2021/10/23 14:00:45;;;;;;;9.15;6.35;;;;;;;;;;5014547;28;20228;-74
2021/10/23 14:03:11;;;;;;;8.20;6.53;;;;;;;;;;5016156;28;20214;-74
2021/10/23 14:05:36;;;;;;;10.57;6.50;;;;;;;;;;5015672;28;20178;-74
2021/10/23 14:08:01;;;;;;;9.40;7.32;;;;;;;;;;5017740;28;20218;-74
2021/10/23 14:10:26;;;;;;;7.80;6.43;;;;;;;;;;5016974;28;20991;-74
2021/10/23 14:12:52;;;;;;;8.50;6.43;;;;;;;;;;5017407;28;20602;-73
2021/10/23 14:15:17;;;;;;;9.05;6.72;;;;;;;;;;5015119;28;20679;-74
2021/10/23 14:17:42;;;;;;;8.63;7.30;;;;;;;;;;5016568;28;20668;-75
2021/10/23 14:20:07;;;;;;;9.27;6.90;;;;;;;;;;5016871;28;20443;-75
2021/10/23 14:22:33;;;;;;;9.48;7.35;;;;;;;;;;5015341;28;20173;-74
2021/10/23 14:24:59;;;;;;;10.25;6.47;;;;;;;;;;5015657;28;20212;-75
2021/10/23 14:30:10;;;;;;;8.60;6.43;;;;;;;;;;5014895;28;20201;-74
2021/10/23 14:32:35;;;;;;;11.55;7.10;;;;;;;;;;5017270;28;20182;-75